Terminal Aerodrome Forecast
Issued by NWS

Home | Current Version | Previous Version | Text Only | Print | Product List | Glossary On
Versions: 1 2 3 4 5 6 7 8 9 10 11 12 13 14 15 16 17 18 19 20 21 22 23 24
000
FTUS44 KOUN 272337
TAFGAG
TAF
KGAG 272337Z 2800/2824 17016G25KT P6SM VCSH SCT150 BKN250
     FM280200 17014KT P6SM SCT080 BKN220
     FM281200 21011KT P6SM BKN080 BKN150 PROB30 2814/2817 5SM -TSRA
      BKN050CB
     FM281800 34013KT P6SM BKN080=

USA.gov is the U.S. government's official web portal to all federal, state and local government web resources and services.